Time;durP1;ratioP1;P1;durP2;ratioP2;P2;SDS_P1;SDS_P2;PMS_P1;PMS_P2;Temp;Humidity;BMP_temperature;BMP_pressure;BME280_temperature;BME280_humidity;BME280_pressure;Samples;Min_cycle;Max_cycle;Signal;HPM_P1;HPM_P2
2021/06/03 00:02:11;;;;;;;10.80;5.97;;;;;;;8.57;60.29;100729.80;1769976;79;20940;-66
2021/06/03 00:04:39;;;;;;;13.30;6.55;;;;;;;8.54;60.44;100731.14;1768375;79;21064;-66
2021/06/03 00:07:06;;;;;;;18.15;8.90;;;;;;;8.52;60.65;100732.94;1766798;80;20995;-66
2021/06/03 00:09:32;;;;;;;15.98;7.65;;;;;;;8.53;60.87;100737.25;1766548;79;22241;-67
2021/06/03 00:11:59;;;;;;;16.67;7.10;;;;;;;8.56;61.04;100731.11;1764496;79;21545;-66
2021/06/03 00:14:27;;;;;;;11.30;6.55;;;;;;;8.59;61.03;100734.50;1763020;80;21037;-66
2021/06/03 00:16:54;;;;;;;13.43;6.90;;;;;;;8.60;61.11;100727.12;1789993;79;20963;-66
2021/06/03 00:19:21;;;;;;;14.13;6.75;;;;;;;8.58;61.15;100731.49;1792008;79;26781;-66
2021/06/03 00:21:47;;;;;;;19.20;8.00;;;;;;;8.55;61.25;100734.17;1790155;78;21123;-66
2021/06/03 00:24:14;;;;;;;15.20;7.08;;;;;;;8.53;61.42;100735.95;1789477;80;21581;-66
2021/06/03 00:26:42;;;;;;;8.68;5.50;;;;;;;8.49;61.43;100736.47;1786362;80;20995;-66
2021/06/03 00:29:11;;;;;;;;;;;;;;;8.51;61.50;100733.81;1789580;79;21617;-66
2021/06/03 00:31:37;;;;;;;8.50;5.00;;;;;;;8.52;61.79;100736.84;1790780;79;20112;-66
2021/06/03 00:34:04;;;;;;;9.10;5.87;;;;;;;8.53;61.78;100732.48;1791191;79;21090;-66
2021/06/03 00:36:30;;;;;;;13.15;6.75;;;;;;;8.51;61.84;100736.42;1762258;80;20971;-66
2021/06/03 00:38:57;;;;;;;10.65;6.75;;;;;;;8.45;61.76;100731.35;1755085;81;22001;-66
2021/06/03 00:41:23;;;;;;;15.15;7.05;;;;;;;8.35;61.89;100724.63;1751362;81;21692;-66
2021/06/03 00:43:50;;;;;;;17.43;8.87;;;;;;;8.29;61.95;100733.42;1752694;81;21034;-66
2021/06/03 00:46:17;;;;;;;19.50;9.78;;;;;;;8.23;62.07;100728.33;1753536;81;21446;-66
2021/06/03 00:48:43;;;;;;;28.10;11.78;;;;;;;8.17;62.11;100731.92;1752573;81;21056;-66
2021/06/03 00:51:10;;;;;;;29.02;11.57;;;;;;;8.12;62.22;100727.25;1759050;81;21000;-66
2021/06/03 00:53:40;;;;;;;30.08;12.25;;;;;;;8.09;62.33;100732.52;1735838;82;20942;-66
2021/06/03 00:56:07;;;;;;;28.90;12.93;;;;;;;8.08;62.42;100732.12;1788381;79;20951;-66
2021/06/03 00:58:36;;;;;;;23.57;12.40;;;;;;;8.06;62.47;100727.39;1786381;80;21113;-66
2021/06/03 01:01:04;;;;;;;34.08;12.95;;;;;;;8.06;62.70;100736.48;1788703;79;21015;-66
2021/06/03 01:03:32;;;;;;;30.27;12.90;;;;;;;8.06;62.80;100733.89;1792281;79;20985;-66
2021/06/03 01:06:01;;;;;;;;;;;;;;;8.06;62.95;100733.89;1795710;78;21016;-66
2021/06/03 01:08:45;;;;;;;29.57;13.48;;;;;;;8.07;63.32;100733.02;1792013;79;21002;-66
2021/06/03 01:11:20;;;;;;;21.33;11.30;;;;;;;8.06;63.08;100731.29;1792073;79;21522;-66
2021/06/03 01:14:16;;;;;;;17.15;8.35;;;;;;;8.05;63.25;100733.48;1793620;78;20979;-66
2021/06/03 01:16:44;;;;;;;13.15;7.83;;;;;;;8.08;63.29;100728.22;1795338;78;21030;-66
2021/06/03 01:19:16;;;;;;;12.90;6.85;;;;;;;8.12;63.54;100728.55;1761481;78;21004;-66
2021/06/03 01:22:09;;;;;;;9.30;4.83;;;;;;;8.16;63.46;100726.31;1796276;78;21548;-66
2021/06/03 01:24:39;;;;;;;19.60;9.15;;;;;;;8.18;63.47;100725.84;1796900;79;20970;-66
2021/06/03 01:27:17;;;;;;;16.02;7.50;;;;;;;8.16;63.47;100723.72;1794034;79;20991;-66
2021/06/03 01:30:16;;;;;;;14.90;8.15;;;;;;;8.07;63.50;100728.67;1799044;78;21017;-66
2021/06/03 01:32:51;;;;;;;22.27;11.10;;;;;;;8.01;63.80;100727.92;1788769;78;21438;-66
2021/06/03 01:35:22;;;;;;;21.33;9.53;;;;;;;7.97;63.77;100731.48;1758336;79;20926;-66
2021/06/03 01:37:50;;;;;;;19.10;9.23;;;;;;;7.92;63.84;100730.72;1733640;81;21545;-66
2021/06/03 01:40:19;;;;;;;18.02;8.80;;;;;;;7.90;64.03;100728.58;1737020;81;20978;-66
2021/06/03 01:42:47;;;;;;;15.45;7.55;;;;;;;7.93;64.10;100729.84;1754230;81;20941;-67
2021/06/03 01:45:15;;;;;;;15.58;9.90;;;;;;;7.95;64.23;100730.66;1781381;79;21667;-67
2021/06/03 01:47:44;;;;;;;24.70;10.93;;;;;;;7.94;64.21;100734.16;1745328;81;21464;-66
2021/06/03 01:50:13;;;;;;;22.22;9.45;;;;;;;7.88;64.12;100736.88;1781767;79;21478;-66
2021/06/03 01:52:40;;;;;;;20.90;9.68;;;;;;;7.82;64.22;100733.52;1731671;81;21053;-66
2021/06/03 01:55:10;;;;;;;18.90;8.63;;;;;;;7.78;64.27;100731.84;1763986;79;21369;-66
2021/06/03 01:57:39;;;;;;;19.87;9.75;;;;;;;7.76;64.46;100735.38;1762111;79;20938;-66
2021/06/03 02:00:10;;;;;;;16.73;8.80;;;;;;;7.74;64.48;100735.41;1762825;79;21608;-66
2021/06/03 02:02:36;;;;;;;17.27;9.18;;;;;;;7.70;64.52;100736.36;1764753;79;21071;-66
2021/06/03 02:05:05;;;;;;;15.95;9.20;;;;;;;7.64;64.61;100739.05;1764280;81;20914;-66
2021/06/03 02:07:32;;;;;;;15.88;9.08;;;;;;;7.58;64.73;100737.42;1761822;79;20982;-66
2021/06/03 02:09:59;;;;;;;21.35;9.58;;;;;;;7.52;64.80;100730.20;1764159;79;20934;-66
2021/06/03 02:12:31;;;;;;;20.97;9.58;;;;;;;7.50;64.93;100728.06;1777153;80;21041;-66
2021/06/03 02:15:00;;;;;;;22.37;10.38;;;;;;;7.52;64.99;100732.80;1735599;81;21515;-66
2021/06/03 02:17:31;;;;;;;20.35;9.40;;;;;;;7.51;65.08;100727.20;1739056;81;21492;-66
2021/06/03 02:20:22;;;;;;;19.77;9.15;;;;;;;7.51;65.22;100729.80;1738835;82;21040;-66
2021/06/03 02:22:50;;;;;;;15.30;7.97;;;;;;;7.52;65.41;100728.90;1752260;81;20950;-66
2021/06/03 02:25:18;;;;;;;17.20;9.00;;;;;;;7.55;65.50;100731.44;1759245;80;21484;-66
2021/06/03 02:27:47;;;;;;;13.35;7.62;;;;;;;7.57;65.51;100730.97;1761229;80;21504;-66
2021/06/03 02:30:17;;;;;;;17.55;9.05;;;;;;;7.54;65.61;100729.73;1764971;80;20950;-66
2021/06/03 02:32:45;;;;;;;20.23;8.95;;;;;;;7.54;65.61;100735.78;1765658;80;20923;-67
2021/06/03 02:35:13;;;;;;;16.57;9.65;;;;;;;7.55;65.77;100734.88;1720851;81;20946;-66
2021/06/03 02:37:42;;;;;;;19.48;9.40;;;;;;;7.57;65.83;100737.02;1764894;80;21038;-66
2021/06/03 02:40:16;;;;;;;17.07;8.78;;;;;;;7.59;65.84;100738.31;1763685;80;21434;-66
2021/06/03 02:42:45;;;;;;;18.25;8.80;;;;;;;7.60;65.88;100742.61;1760938;80;20986;-66
2021/06/03 02:45:17;;;;;;;18.00;9.18;;;;;;;7.61;65.96;100741.71;1718665;82;20966;-66
2021/06/03 02:47:44;;;;;;;17.70;9.23;;;;;;;7.66;66.12;100745.09;1724819;82;20978;-66
2021/06/03 02:50:13;;;;;;;17.10;9.48;;;;;;;7.75;66.22;100742.30;1790404;78;21587;-66
2021/06/03 02:52:41;;;;;;;13.65;8.28;;;;;;;7.88;66.33;100736.88;1793537;78;21512;-66
2021/06/03 02:55:12;;;;;;;24.65;9.45;;;;;;;7.94;66.17;100740.66;1788544;78;21009;-67
2021/06/03 02:57:39;;;;;;;20.55;8.45;;;;;;;7.98;66.20;100742.29;1787267;78;21020;-66
2021/06/03 03:00:11;;;;;;;16.77;9.53;;;;;;;8.00;66.27;100740.08;1786535;78;20986;-66
2021/06/03 03:02:39;;;;;;;37.33;8.88;;;;;;;8.14;66.44;100747.59;1793327;78;21026;-66
2021/06/03 03:05:07;;;;;;;17.25;8.70;;;;;;;8.35;66.31;100742.84;1791352;78;21116;-66
2021/06/03 03:07:35;;;;;;;18.02;7.62;;;;;;;8.34;66.25;100743.27;1791599;78;20934;-66
2021/06/03 03:10:06;;;;;;;14.07;8.38;;;;;;;8.40;66.43;100744.91;1785042;78;26592;-66
2021/06/03 03:12:33;;;;;;;15.88;8.50;;;;;;;8.48;66.42;100746.90;1789764;78;21508;-67
2021/06/03 03:15:00;;;;;;;13.53;8.68;;;;;;;8.52;66.38;100751.16;1787596;78;21073;-66
2021/06/03 03:17:27;;;;;;;15.00;8.08;;;;;;;8.61;66.37;100750.95;1772858;79;21074;-66
2021/06/03 03:19:53;;;;;;;14.93;7.97;;;;;;;8.67;66.41;100748.20;1774446;80;20970;-66
2021/06/03 03:22:20;;;;;;;14.87;7.58;;;;;;;8.78;66.53;100753.61;1778739;79;21008;-66
2021/06/03 03:24:47;;;;;;;13.03;7.30;;;;;;;9.38;66.86;100758.19;1768591;80;21032;-66
2021/06/03 03:27:13;;;;;;;16.32;8.38;;;;;;;9.86;66.37;100760.41;1771327;79;21706;-67
2021/06/03 03:29:40;;;;;;;13.20;6.65;;;;;;;10.43;66.67;100753.13;1775822;79;21038;-67
2021/06/03 03:32:07;;;;;;;10.57;6.23;;;;;;;11.39;65.92;100751.76;1768323;79;20901;-67
2021/06/03 03:34:34;;;;;;;10.28;6.17;;;;;;;11.80;65.24;100748.62;1777806;80;21040;-67
2021/06/03 03:37:02;;;;;;;13.35;6.35;;;;;;;11.96;65.37;100758.09;1737932;81;21006;-67
2021/06/03 03:39:28;;;;;;;9.33;5.80;;;;;;;12.23;65.63;100749.22;1715490;82;22157;-67
2021/06/03 03:41:55;;;;;;;12.63;6.22;;;;;;;12.59;65.22;100755.27;1716799;81;21048;-67
2021/06/03 03:44:22;;;;;;;11.57;6.65;;;;;;;12.67;64.94;100758.45;1721808;81;21013;-67
2021/06/03 03:46:48;;;;;;;12.10;7.15;;;;;;;12.65;65.05;100761.58;1740144;82;21005;-67
2021/06/03 03:49:16;;;;;;;11.80;6.03;;;;;;;13.72;65.85;100758.92;1739300;81;21086;-67
2021/06/03 03:51:43;;;;;;;12.00;6.95;;;;;;;15.23;65.35;100756.70;1739753;81;21233;-67
2021/06/03 03:54:10;;;;;;;13.70;7.03;;;;;;;16.71;65.10;100754.55;1738124;81;21129;-67
2021/06/03 03:56:36;;;;;;;7.42;4.72;;;;;;;18.37;64.72;100750.45;1740579;81;20939;-68
2021/06/03 03:59:03;;;;;;;8.35;5.25;;;;;;;19.53;63.17;100753.88;1739706;81;20938;-67
2021/06/03 04:01:30;;;;;;;10.25;4.78;;;;;;;20.41;62.47;100752.59;1745613;81;21021;-68
2021/06/03 04:03:57;;;;;;;9.58;4.20;;;;;;;21.43;62.17;100746.85;1741868;81;21503;-68
2021/06/03 04:06:23;;;;;;;;;;;;;;;21.98;61.10;100747.02;1729642;81;21913;-68
2021/06/03 04:08:50;;;;;;;10.03;6.20;;;;;;;21.77;60.29;100748.23;1724650;81;20640;-67
2021/06/03 04:11:19;;;;;;;11.53;6.25;;;;;;;21.30;60.09;100750.88;1725561;81;21591;-68
2021/06/03 04:13:45;;;;;;;13.48;6.45;;;;;;;20.54;59.81;100746.80;1715771;83;21017;-67
2021/06/03 04:16:12;;;;;;;;;;;;;;;20.02;60.32;100754.47;1763004;80;21104;-67
2021/06/03 04:18:38;;;;;;;8.33;4.05;;;;;;;19.82;60.09;100748.77;1733433;81;22035;-68
2021/06/03 04:21:05;;;;;;;6.00;3.40;;;;;;;19.44;59.65;100750.91;1734235;81;20965;-68
2021/06/03 04:23:32;;;;;;;5.85;3.50;;;;;;;19.00;59.50;100745.46;1758723;80;21001;-68
2021/06/03 04:25:58;;;;;;;8.93;3.60;;;;;;;18.69;59.39;100751.05;1732232;81;20982;-68
2021/06/03 04:28:25;;;;;;;5.72;3.15;;;;;;;18.51;59.72;100752.61;1774962;79;21563;-67
2021/06/03 04:30:52;;;;;;;5.75;3.50;;;;;;;18.46;59.50;100752.05;1753003;80;22068;-67
2021/06/03 04:33:20;;;;;;;5.22;3.10;;;;;;;18.36;59.30;100753.56;1774914;79;22361;-66
2021/06/03 04:35:47;;;;;;;5.30;3.50;;;;;;;18.31;59.00;100756.97;1777700;80;21116;-67
2021/06/03 04:38:14;;;;;;;6.78;3.60;;;;;;;18.58;58.88;100754.85;1794130;78;20940;-67
2021/06/03 04:40:41;;;;;;;5.62;3.37;;;;;;;18.77;59.01;100759.36;1796293;78;20968;-67
2021/06/03 04:43:08;;;;;;;6.28;3.02;;;;;;;19.18;59.23;100761.06;1796629;78;21886;-66
2021/06/03 04:45:36;;;;;;;;;;;;;;;19.67;59.19;100760.44;1779885;79;20973;-68
2021/06/03 04:48:06;;;;;;;5.42;2.77;;;;;;;20.10;58.88;100765.38;1768466;79;20085;-67
2021/06/03 04:50:34;;;;;;;3.77;2.70;;;;;;;21.78;59.61;100768.52;1770333;79;20990;-67
2021/06/03 04:53:01;;;;;;;4.08;2.50;;;;;;;22.68;57.31;100752.51;1775893;79;21555;-67
2021/06/03 04:55:29;;;;;;;5.92;2.33;;;;;;;22.49;56.35;100763.34;1771283;80;21084;-67
2021/06/03 04:57:58;;;;;;;4.85;2.45;;;;;;;21.89;56.10;100766.71;1767675;79;21575;-67
2021/06/03 05:00:28;;;;;;;4.58;2.70;;;;;;;21.41;55.91;100767.37;1770304;79;21026;-67
2021/06/03 05:02:56;;;;;;;10.53;2.98;;;;;;;21.03;55.93;100761.75;1772887;79;21027;-67
2021/06/03 05:05:23;;;;;;;5.40;2.55;;;;;;;20.99;56.16;100758.98;1775723;79;21346;-68
2021/06/03 05:07:50;;;;;;;4.87;2.25;;;;;;;21.12;55.88;100762.42;1774465;79;21078;-68
2021/06/03 05:10:19;;;;;;;5.08;2.40;;;;;;;21.16;55.62;100761.21;1775026;79;20956;-68
2021/06/03 05:12:46;;;;;;;8.45;2.20;;;;;;;21.57;56.35;100766.56;1769735;79;20996;-68
2021/06/03 05:15:15;;;;;;;5.37;1.90;;;;;;;23.06;56.30;100753.38;1773108;79;20978;-68
2021/06/03 05:17:43;;;;;;;7.35;2.40;;;;;;;24.52;55.44;100758.17;1774624;79;21133;-68
2021/06/03 05:20:13;;;;;;;6.55;2.12;;;;;;;25.48;54.73;100761.86;1771427;80;21597;-69
2021/06/03 05:22:40;;;;;;;8.70;2.42;;;;;;;26.08;53.77;100763.75;1776372;79;21526;-68
2021/06/03 05:25:12;;;;;;;6.83;2.12;;;;;;;26.27;52.82;100756.60;1766792;79;20944;-67
2021/06/03 05:27:40;;;;;;;3.47;1.80;;;;;;;26.51;52.51;100762.28;1767979;79;20971;-68
2021/06/03 05:30:10;;;;;;;11.97;3.55;;;;;;;26.62;52.32;100765.24;1770878;79;21508;-68
2021/06/03 05:32:38;;;;;;;11.25;1.98;;;;;;;27.38;51.89;100763.44;1764470;79;21245;-68
2021/06/03 05:35:09;;;;;;;14.85;2.15;;;;;;;27.65;50.79;100764.31;1772336;79;21574;-67
2021/06/03 05:37:36;;;;;;;11.28;1.37;;;;;;;27.18;50.45;100760.61;1754732;79;21559;-67
2021/06/03 05:40:06;;;;;;;13.83;1.87;;;;;;;27.50;50.02;100764.02;1772100;79;21556;-67
2021/06/03 05:42:33;;;;;;;6.28;1.42;;;;;;;27.75;48.30;100763.68;1762438;79;20964;-67
2021/06/03 05:45:02;;;;;;;8.43;1.50;;;;;;;27.15;47.20;100760.39;1771759;79;21380;-67
2021/06/03 05:47:31;;;;;;;4.87;1.50;;;;;;;26.67;47.33;100765.64;1769156;79;21497;-68
2021/06/03 05:49:58;;;;;;;4.70;1.20;;;;;;;26.42;46.85;100765.83;1777301;79;21498;-67
2021/06/03 05:52:28;;;;;;;4.47;1.25;;;;;;;26.43;46.66;100764.83;1771429;79;21069;-67
2021/06/03 05:54:54;;;;;;;11.80;1.77;;;;;;;26.25;45.52;100766.64;1774796;80;21508;-67
2021/06/03 05:57:21;;;;;;;5.90;1.35;;;;;;;26.59;46.18;100764.72;1774448;79;21844;-68
2021/06/03 05:59:48;;;;;;;5.28;1.65;;;;;;;27.15;45.06;100765.75;1773557;79;21571;-67
2021/06/03 06:02:20;;;;;;;2.47;1.40;;;;;;;27.55;44.96;100761.72;1774448;79;21227;-67
2021/06/03 06:07:32;;;;;;;2.98;1.30;;;;;;;27.19;42.53;100762.28;1766979;79;21024;-67
2021/06/03 06:10:01;;;;;;;4.72;1.47;;;;;;;27.27;43.33;100769.05;1773080;79;21079;-66
2021/06/03 06:12:27;;;;;;;2.12;1.30;;;;;;;27.91;42.64;100767.50;1772536;79;21020;-67
2021/06/03 06:14:56;;;;;;;2.62;1.17;;;;;;;28.22;41.68;100772.67;1769114;80;21792;-67
2021/06/03 06:17:23;;;;;;;11.68;1.55;;;;;;;28.34;40.15;100775.42;1768258;80;20974;-67
2021/06/03 06:19:52;;;;;;;3.62;1.52;;;;;;;27.69;40.23;100779.08;1754542;81;21025;-68
2021/06/03 06:22:19;;;;;;;6.22;1.35;;;;;;;28.04;40.66;100777.31;1756561;80;21031;-67
2021/06/03 06:24:47;;;;;;;6.42;1.25;;;;;;;28.26;39.86;100782.10;1756805;81;21013;-67
2021/06/03 06:27:14;;;;;;;2.58;1.30;;;;;;;28.41;39.41;100784.17;1763018;80;20999;-67
2021/06/03 06:29:41;;;;;;;4.60;1.60;;;;;;;28.70;39.27;100784.59;1722950;83;21007;-67
2021/06/03 06:32:08;;;;;;;3.00;1.32;;;;;;;28.88;37.95;100782.30;1764532;80;21021;-67
2021/06/03 06:34:34;;;;;;;4.08;1.17;;;;;;;28.80;37.49;100780.95;1755689;81;21053;-67
2021/06/03 06:37:01;;;;;;;3.25;1.25;;;;;;;28.49;37.27;100785.06;1763416;80;20954;-67
2021/06/03 06:39:27;;;;;;;2.35;1.50;;;;;;;28.33;36.68;100785.81;1765445;80;21740;-67
2021/06/03 06:41:54;;;;;;;3.12;1.50;;;;;;;28.16;36.23;100786.75;1723607;83;20997;-66
2021/06/03 06:44:21;;;;;;;3.05;1.10;;;;;;;28.05;36.01;100781.66;1715675;82;21017;-66
2021/06/03 06:46:48;;;;;;;3.20;1.10;;;;;;;28.30;35.88;100784.79;1764858;80;21082;-67
2021/06/03 06:49:14;;;;;;;1.82;1.07;;;;;;;28.41;35.41;100785.51;1723120;83;20954;-67
2021/06/03 06:51:41;;;;;;;4.97;1.35;;;;;;;28.70;35.48;100785.94;1765206;80;21560;-66
2021/06/03 06:54:08;;;;;;;21.10;2.30;;;;;;;29.06;35.03;100787.04;1762890;80;21011;-67
2021/06/03 06:56:35;;;;;;;1.95;1.20;;;;;;;28.85;34.04;100787.50;1766287;80;21642;-67
2021/06/03 06:59:01;;;;;;;3.65;1.25;;;;;;;28.48;34.13;100790.59;1765735;80;21088;-65
2021/06/03 07:01:28;;;;;;;4.28;1.47;;;;;;;28.59;34.15;100791.62;1763895;80;21009;-67
2021/06/03 07:03:55;;;;;;;3.30;1.27;;;;;;;28.62;33.67;100788.61;1766497;80;20975;-66
2021/06/03 07:06:21;;;;;;;8.98;1.70;;;;;;;28.52;33.30;100786.59;1764670;80;20947;-68
2021/06/03 07:08:48;;;;;;;3.95;1.25;;;;;;;28.45;33.20;100785.54;1727280;82;20993;-68
2021/06/03 07:11:16;;;;;;;3.30;1.37;;;;;;;28.33;32.69;100780.44;1787415;79;21907;-65
2021/06/03 07:13:43;;;;;;;6.30;1.35;;;;;;;28.36;32.63;100789.18;1790419;79;21498;-66
2021/06/03 07:16:10;;;;;;;3.45;1.10;;;;;;;28.17;31.86;100780.36;1793177;78;20973;-67
2021/06/03 07:18:37;;;;;;;3.67;1.30;;;;;;;27.65;31.67;100788.45;1774397;78;21048;-67
2021/06/03 07:21:04;;;;;;;3.55;1.30;;;;;;;27.34;31.99;100786.22;1768484;79;20946;-67
2021/06/03 07:23:31;;;;;;;5.97;1.22;;;;;;;27.24;31.63;100782.77;1765970;78;21084;-66
2021/06/03 07:25:57;;;;;;;5.55;1.67;;;;;;;27.05;31.71;100789.10;1766891;79;20995;-65
2021/06/03 07:28:24;;;;;;;3.45;1.27;;;;;;;26.80;31.57;100788.02;1774250;79;20915;-64
2021/06/03 07:30:51;;;;;;;5.15;1.40;;;;;;;26.42;30.95;100795.29;1770052;79;20972;-65
2021/06/03 07:33:18;;;;;;;2.10;1.27;;;;;;;25.70;30.94;100793.28;1771904;79;20969;-64
2021/06/03 07:35:45;;;;;;;;;;;;;;;25.27;30.81;100797.29;1775467;80;21937;-65
2021/06/03 07:38:11;;;;;;;4.37;1.57;;;;;;;24.88;30.67;100792.73;1774965;79;20147;-64
2021/06/03 07:40:39;;;;;;;;;;;;;;;24.71;31.07;100785.41;1779905;79;20938;-65
2021/06/03 07:43:09;;;;;;;2.85;1.62;;;;;;;24.62;30.72;100787.09;1776890;79;20140;-66
2021/06/03 07:45:36;;;;;;;6.35;1.40;;;;;;;24.68;30.74;100789.20;1769578;79;21540;-63
2021/06/03 07:48:04;;;;;;;4.37;1.60;;;;;;;24.45;30.38;100799.73;1781786;79;21128;-66
2021/06/03 07:50:33;;;;;;;2.60;1.30;;;;;;;24.30;30.57;100796.08;1770209;79;21312;-65
2021/06/03 07:53:02;;;;;;;3.98;1.72;;;;;;;24.47;30.74;100791.94;1746195;80;21030;-66
2021/06/03 07:55:29;;;;;;;4.15;1.30;;;;;;;24.38;30.34;100794.56;1771534;79;21002;-64
2021/06/03 07:57:59;;;;;;;2.80;1.50;;;;;;;24.32;30.36;100794.13;1773784;79;20934;-65
2021/06/03 08:00:30;;;;;;;7.72;1.90;;;;;;;24.37;30.59;100794.19;1768917;79;21481;-65
2021/06/03 08:02:57;;;;;;;2.98;1.42;;;;;;;24.56;30.23;100787.61;1768293;79;20936;-64
2021/06/03 08:05:27;;;;;;;2.12;1.60;;;;;;;24.56;30.63;100795.62;1777794;78;21002;-66
2021/06/03 08:08:02;;;;;;;8.83;1.77;;;;;;;24.82;30.62;100787.12;1773864;80;21583;-67
2021/06/03 08:10:34;;;;;;;3.55;1.80;;;;;;;25.10;30.95;100785.45;1771363;79;22304;-66
2021/06/03 08:13:02;;;;;;;3.25;1.50;;;;;;;25.34;30.31;100797.89;1769026;79;21065;-67
2021/06/03 08:15:31;;;;;;;2.70;1.45;;;;;;;25.36;30.46;100793.76;1773608;79;21141;-67
2021/06/03 08:17:58;;;;;;;5.28;1.92;;;;;;;25.51;30.21;100794.16;1712089;81;21565;-67
2021/06/03 08:20:39;;;;;;;4.37;1.40;;;;;;;25.25;30.09;100803.26;1762501;81;21020;-67
2021/06/03 08:23:08;;;;;;;3.45;1.60;;;;;;;25.07;29.88;100799.93;1778407;80;20991;-68
2021/06/03 08:25:35;;;;;;;6.58;1.75;;;;;;;25.14;30.05;100798.86;1736173;81;21039;-67
2021/06/03 08:28:03;;;;;;;5.35;1.70;;;;;;;25.20;29.90;100797.83;1771469;80;21552;-67
2021/06/03 08:30:31;;;;;;;4.03;1.50;;;;;;;25.02;29.93;100798.16;1782302;80;21711;-67
2021/06/03 08:32:58;;;;;;;3.17;1.60;;;;;;;24.82;29.96;100797.80;1741818;80;20942;-67
2021/06/03 08:35:25;;;;;;;;;;;;;;;24.82;29.86;100797.80;1778477;79;20999;-66
2021/06/03 08:37:58;;;;;;;2.45;1.62;;;;;;;24.63;29.47;100794.10;1777425;79;21817;-66
2021/06/03 08:40:29;;;;;;;2.92;1.52;;;;;;;24.19;29.67;100793.50;1780294;79;20994;-66
2021/06/03 08:42:57;;;;;;;5.55;1.60;;;;;;;23.75;29.66;100798.22;1782261;79;21537;-66
2021/06/03 08:45:28;;;;;;;4.72;1.62;;;;;;;23.63;29.70;100791.22;1775244;79;20985;-66
2021/06/03 08:47:55;;;;;;;1.65;1.25;;;;;;;23.29;29.70;100791.41;1771218;79;22119;-65
2021/06/03 08:50:26;;;;;;;7.78;2.17;;;;;;;23.07;29.98;100792.84;1779754;79;21888;-66
2021/06/03 08:52:55;;;;;;;2.47;1.50;;;;;;;22.92;30.12;100794.92;1774121;79;21043;-66
2021/06/03 08:58:13;;;;;;;4.10;1.50;;;;;;;22.38;29.58;100795.28;1756548;79;20997;-67
2021/06/03 09:00:42;;;;;;;4.78;1.47;;;;;;;22.98;30.44;100796.63;1781644;79;21820;-66
2021/06/03 09:03:14;;;;;;;2.70;1.50;;;;;;;23.91;30.53;100792.39;1778287;79;21749;-68
2021/06/03 09:05:44;;;;;;;4.05;1.67;;;;;;;24.31;30.11;100795.12;1773122;79;21003;-67
2021/06/03 09:08:23;;;;;;;4.12;1.52;;;;;;;24.47;29.85;100796.45;1771823;79;21045;-67
2021/06/03 09:10:54;;;;;;;4.08;1.67;;;;;;;24.54;30.24;100790.92;1780707;79;20962;-67
2021/06/03 09:13:25;;;;;;;8.18;1.90;;;;;;;25.07;30.49;100795.92;1772603;79;21046;-68
2021/06/03 09:16:12;;;;;;;2.62;1.50;;;;;;;25.54;30.59;100792.52;1779008;79;21065;-68
2021/06/03 09:18:50;;;;;;;2.98;1.60;;;;;;;25.84;30.42;100792.34;1776154;79;20996;-68
2021/06/03 09:21:31;;;;;;;3.05;1.75;;;;;;;26.23;30.78;100779.32;1781822;79;21577;-68
2021/06/03 09:24:10;;;;;;;5.47;1.98;;;;;;;26.62;30.65;100784.50;1784962;79;20946;-68
2021/06/03 09:26:59;;;;;;;5.78;1.70;;;;;;;26.76;30.64;100787.99;1779690;79;21489;-68
2021/06/03 09:29:32;;;;;;;4.75;1.67;;;;;;;26.73;30.24;100782.94;1712959;82;21133;-66
2021/06/03 09:32:09;;;;;;;3.62;1.85;;;;;;;26.22;29.77;100783.00;1692602;82;21812;-67
2021/06/03 09:34:40;;;;;;;5.47;1.70;;;;;;;25.85;29.75;100782.48;1721803;82;21049;-68
2021/06/03 09:37:10;;;;;;;5.45;1.80;;;;;;;25.58;29.10;100785.42;1722679;82;20922;-68
2021/06/03 09:39:44;;;;;;;6.05;1.85;;;;;;;24.92;29.31;100781.27;1713135;83;21010;-68
2021/06/03 09:42:20;;;;;;;2.85;1.60;;;;;;;24.38;29.36;100780.72;1719587;82;20985;-67
2021/06/03 09:44:56;;;;;;;6.92;1.75;;;;;;;24.03;29.89;100782.48;1720641;82;21507;-67
2021/06/03 09:47:41;;;;;;;2.92;1.50;;;;;;;24.03;30.24;100786.48;1687901;83;21631;-67
2021/06/03 09:50:10;;;;;;;3.42;1.57;;;;;;;24.45;30.49;100775.70;1721373;83;21591;-67
2021/06/03 09:52:38;;;;;;;4.28;1.50;;;;;;;25.10;30.34;100782.27;1700401;83;21085;-67
2021/06/03 09:55:12;;;;;;;4.70;1.37;;;;;;;25.50;30.55;100777.27;1723081;81;21133;-67
2021/06/03 09:57:45;;;;;;;2.77;1.42;;;;;;;25.99;30.43;100770.00;1722844;83;21029;-68
2021/06/03 10:00:18;;;;;;;3.85;1.45;;;;;;;26.27;30.31;100769.52;1720260;83;21136;-68
2021/06/03 10:02:45;;;;;;;3.37;2.00;;;;;;;26.45;30.11;100774.06;1711374;82;21093;-67
2021/06/03 10:05:18;;;;;;;7.83;1.50;;;;;;;26.54;29.83;100760.63;1720255;81;20970;-67
2021/06/03 10:08:01;;;;;;;3.08;1.40;;;;;;;26.56;29.61;100768.03;1691424;83;21049;-67
2021/06/03 10:10:29;;;;;;;12.75;1.40;;;;;;;26.34;29.85;100766.58;1723398;81;20985;-67
2021/06/03 10:12:57;;;;;;;7.28;1.80;;;;;;;26.16;29.20;100762.16;1720483;83;20962;-67
2021/06/03 10:15:29;;;;;;;2.52;1.50;;;;;;;25.77;29.07;100752.44;1720514;81;20994;-67
2021/06/03 10:18:05;;;;;;;4.15;1.60;;;;;;;25.20;28.96;100759.08;1709872;82;20994;-66
2021/06/03 10:20:46;;;;;;;4.10;1.50;;;;;;;24.59;28.59;100757.98;1715166;81;21110;-67
2021/06/03 10:23:23;;;;;;;2.75;1.42;;;;;;;24.00;28.48;100758.73;1719798;82;21021;-67
2021/06/03 10:25:57;;;;;;;2.30;1.45;;;;;;;23.45;28.56;100757.17;1717729;81;21380;-67
2021/06/03 10:28:24;;;;;;;3.70;1.72;;;;;;;23.28;28.80;100759.09;1718210;81;21053;-68
2021/06/03 10:30:54;;;;;;;8.08;1.75;;;;;;;23.38;29.33;100758.64;1721837;81;20970;-67
2021/06/03 10:33:25;;;;;;;4.30;1.72;;;;;;;23.63;29.35;100752.07;1722581;83;21446;-67
2021/06/03 10:35:56;;;;;;;6.78;1.80;;;;;;;23.26;29.31;100758.36;1719280;82;20942;-66
2021/06/03 10:38:24;;;;;;;5.97;1.90;;;;;;;23.36;29.52;100755.30;1722202;83;20938;-65
2021/06/03 10:40:55;;;;;;;2.80;1.65;;;;;;;23.56;29.65;100750.92;1717451;83;21061;-66
2021/06/03 10:43:23;;;;;;;5.58;1.60;;;;;;;23.85;29.82;100759.09;1720954;82;21038;-67
2021/06/03 10:45:50;;;;;;;6.33;2.02;;;;;;;24.15;29.70;100764.08;1718774;83;21049;-66
2021/06/03 10:48:17;;;;;;;5.92;2.00;;;;;;;24.33;29.85;100754.43;1716745;83;20999;-66
2021/06/03 10:50:51;;;;;;;9.13;2.20;;;;;;;24.54;30.23;100758.89;1719773;83;20985;-65
2021/06/03 10:53:25;;;;;;;7.60;1.77;;;;;;;24.68;30.19;100756.31;1721403;83;21053;-67
2021/06/03 10:55:55;;;;;;;6.28;1.70;;;;;;;24.96;30.33;100762.66;1720535;82;21017;-66
2021/06/03 10:58:37;;;;;;;3.55;1.40;;;;;;;25.12;29.99;100768.29;1713921;82;21154;-67
2021/06/03 11:01:34;;;;;;;8.78;2.00;;;;;;;25.31;29.42;100771.95;1867570;75;23255;-67
2021/06/03 11:04:04;;;;;;;5.67;1.80;;;;;;;24.96;29.55;100765.34;1830536;76;20962;-67
2021/06/03 11:06:33;;;;;;;3.62;1.80;;;;;;;24.35;29.62;100761.82;1833316;77;21319;-68
2021/06/03 11:09:06;;;;;;;5.12;1.62;;;;;;;24.34;30.24;100757.47;1827913;77;20975;-68
2021/06/03 11:11:44;;;;;;;4.00;2.20;;;;;;;24.50;30.21;100749.45;1829894;77;20981;-68
2021/06/03 11:14:19;;;;;;;3.00;1.70;;;;;;;24.63;30.13;100756.72;1829864;77;21021;-68
2021/06/03 11:16:54;;;;;;;3.75;1.40;;;;;;;24.92;30.24;100753.22;1826690;77;21057;-68
2021/06/03 11:19:29;;;;;;;2.62;1.65;;;;;;;25.07;30.49;100749.16;1830643;77;21021;-67
2021/06/03 11:22:07;;;;;;;7.30;1.85;;;;;;;25.25;30.21;100745.80;1827921;77;20998;-68
2021/06/03 11:24:39;;;;;;;3.83;2.02;;;;;;;24.91;29.77;100748.87;1799952;77;20924;-67
2021/06/03 11:27:13;;;;;;;3.72;1.52;;;;;;;24.59;30.21;100739.30;1832702;77;21004;-67
2021/06/03 11:29:54;;;;;;;5.17;1.82;;;;;;;24.96;30.09;100733.28;1828009;77;22084;-68
2021/06/03 11:32:26;;;;;;;8.25;1.77;;;;;;;24.89;29.58;100748.16;1830227;77;21833;-68
2021/06/03 11:35:01;;;;;;;3.42;1.90;;;;;;;24.50;29.70;100743.61;1833225;77;20920;-68
2021/06/03 11:37:39;;;;;;;6.60;2.35;;;;;;;24.26;29.88;100743.97;1828933;77;21561;-68
2021/06/03 11:40:12;;;;;;;9.50;2.10;;;;;;;24.32;30.51;100748.75;1830099;77;20958;-68
2021/06/03 11:42:47;;;;;;;3.75;2.40;;;;;;;24.68;30.34;100741.13;1833970;77;20960;-68
2021/06/03 11:45:30;;;;;;;3.42;1.55;;;;;;;24.88;30.47;100747.82;1830664;77;21110;-68